Observation data for Northfield on 08/15/2019      Previous  Date       Current Mesonet Observations  Soil Data  Daily Summary Page  Observations in Plain Language
KNOR 150500Z 11006KT 26/15 A3011 RMK A01 T02620152  RH  053%=      5-min Rain = 0
KNOR 150505Z 11006KT 26/15 A3011 RMK A01 T02630152  RH  053%=      5-min Rain = 0
KNOR 150510Z 11006KT 26/15 A3011 RMK A01 T02620153  RH  053%=      5-min Rain = 0
KNOR 150515Z 11006KT 26/15 A3011 RMK A01 T02620153  RH  054%=      5-min Rain = 0
KNOR 150520Z 12006KT 26/15 A3011 RMK A01 T02610154  RH  054%=      5-min Rain = 0
KNOR 150525Z 12006KT 26/15 A3011 RMK A01 T02610154  RH  054%=      5-min Rain = 0
KNOR 150530Z 12006KT 26/16 A3011 RMK A01 T02610155  RH  054%=      5-min Rain = 0
KNOR 150535Z 12006KT 26/16 A3011 RMK A01 T02600155  RH  055%=      5-min Rain = 0
KNOR 150540Z 12006KT 26/16 A3011 RMK A01 T02590156  RH  055%=      5-min Rain = 0
KNOR 150545Z 12006KT 26/16 A3011 RMK A01 T02610157  RH  055%=      5-min Rain = 0
KNOR 150550Z 12006KT 26/16 A3011 RMK A01 T02620158  RH  055%=      5-min Rain = 0
KNOR 150555Z 12005KT 26/16 A3011 RMK A01 T02630159  RH  055%=      5-min Rain = 0
KNOR 150600Z 12006KT 26/16 A3011 RMK A01 T02640159  RH  055%=      5-min Rain = 0
KNOR 150605Z 12006KT 26/16 A3011 RMK A01 T02640160  RH  055%=      5-min Rain = 0
KNOR 150610Z 13006KT 26/16 A3011 RMK A01 T02630161  RH  056%=      5-min Rain = 0
KNOR 150615Z 12006KT 26/16 A3011 RMK A01 T02630161  RH  056%=      5-min Rain = 0
KNOR 150620Z 13006KT 26/16 A3011 RMK A01 T02630162  RH  056%=      5-min Rain = 0
KNOR 150625Z 13006KT 26/16 A3011 RMK A01 T02610163  RH  057%=      5-min Rain = 0
KNOR 150630Z 14006KT 26/16 A3011 RMK A01 T02580164  RH  059%=      5-min Rain = 0
KNOR 150635Z 14006KT 26/17 A3011 RMK A01 T02570165  RH  060%=      5-min Rain = 0
KNOR 150640Z 14006KT 26/17 A3011 RMK A01 T02590167  RH  060%=      5-min Rain = 0
KNOR 150645Z 14006KT 26/17 A3011 RMK A01 T02600168  RH  060%=      5-min Rain = 0
KNOR 150650Z 15007KT 26/17 A301 RMK A01 T02600169  RH  060%=      5-min Rain = 0
KNOR 150655Z 15007KT 26/17 A301 RMK A01 T02590168  RH  060%=      5-min Rain = 0
KNOR 150700Z 15007KT 26/17 A3011 RMK A01 T02590169  RH  060%=      5-min Rain = 0
KNOR 150705Z 15006KT 26/17 A301 RMK A01 T02570168  RH  061%=      5-min Rain = 0
KNOR 150710Z 16007KT 26/17 A301 RMK A01 T02550167  RH  061%=      5-min Rain = 0
KNOR 150715Z 16008KT 26/17 A301 RMK A01 T02550167  RH  061%=      5-min Rain = 0
KNOR 150720Z 16008KT 26/17 A301 RMK A01 T02560168  RH  061%=      5-min Rain = 0
KNOR 150725Z 16008KT 26/17 A301 RMK A01 T02560170  RH  062%=      5-min Rain = 0
KNOR 150730Z 16009KT 26/17 A301 RMK A01 T02570171  RH  062%=      5-min Rain = 0
KNOR 150735Z 16009KT 26/17 A301 RMK A01 T02560171  RH  063%=      5-min Rain = 0
KNOR 150740Z 16008KT 26/17 A301 RMK A01 T02550171  RH  063%=      5-min Rain = 0
KNOR 150745Z 17008KT 25/17 A301 RMK A01 T02530171  RH  063%=      5-min Rain = 0
KNOR 150750Z 17008KT 25/17 A301 RMK A01 T02530171  RH  064%=      5-min Rain = 0
KNOR 150755Z 17007KT 25/17 A301 RMK A01 T02520172  RH  064%=      5-min Rain = 0
KNOR 150800Z 18008KT 25/17 A3009 RMK A01 T02500171  RH  065%=      5-min Rain = 0
KNOR 150805Z 18007KT 25/17 A3009 RMK A01 T02480171  RH  066%=      5-min Rain = 0
KNOR 150810Z 17007KT 24/17 A3009 RMK A01 T02440170  RH  067%=      5-min Rain = 0
KNOR 150815Z 18007KT 24/17 A3009 RMK A01 T02430171  RH  067%=      5-min Rain = 0
KNOR 150820Z 18007KT 24/17 A3009 RMK A01 T02440171  RH  067%=      5-min Rain = 0
KNOR 150825Z 18007KT 24/17 A3009 RMK A01 T02430171  RH  068%=      5-min Rain = 0
KNOR 150830Z 18007KT 24/17 A3009 RMK A01 T02420172  RH  068%=      5-min Rain = 0
KNOR 150835Z 18006KT 24/17 A3009 RMK A01 T02420172  RH  068%=      5-min Rain = 0
KNOR 150840Z 18006KT 24/17 A3009 RMK A01 T02420172  RH  068%=      5-min Rain = 0
KNOR 150845Z 18006KT 24/17 A3009 RMK A01 T02400172  RH  069%=      5-min Rain = 0
KNOR 150850Z 18006KT 24/17 A3008 RMK A01 T02390172  RH  069%=      5-min Rain = 0
KNOR 150855Z 17006KT 24/17 A3008 RMK A01 T02390172  RH  070%=      5-min Rain = 0
KNOR 150900Z 17007KT 24/17 A3008 RMK A01 T02390173  RH  070%=      5-min Rain = 0
KNOR 150905Z 17007KT 24/17 A3008 RMK A01 T02400174  RH  070%=      5-min Rain = 0
KNOR 150910Z 17007KT 24/17 A3008 RMK A01 T02410174  RH  070%=      5-min Rain = 0
KNOR 150915Z 17008KT 24/18 A3007 RMK A01 T02420175  RH  069%=      5-min Rain = 0
KNOR 150920Z 17008KT 24/18 A3007 RMK A01 T02430175  RH  069%=      5-min Rain = 0
KNOR 150925Z 18008KT 24/18 A3007 RMK A01 T02420175  RH  070%=      5-min Rain = 0
KNOR 150930Z 18007KT 24/17 A3007 RMK A01 T02400174  RH  070%=      5-min Rain = 0
KNOR 150935Z 18006KT 24/17 A3007 RMK A01 T02390174  RH  071%=      5-min Rain = 0
KNOR 150940Z 19006KT 24/17 A3007 RMK A01 T02360174  RH  072%=      5-min Rain = 0
KNOR 150945Z 19006KT 23/17 A3007 RMK A01 T02330173  RH  073%=      5-min Rain = 0
KNOR 150950Z 20006KT 23/17 A3007 RMK A01 T02290173  RH  074%=      5-min Rain = 0
KNOR 150955Z 21005KT 23/17 A3007 RMK A01 T02250172  RH  076%=      5-min Rain = 0
KNOR 151000Z 22004KT 22/17 A3007 RMK A01 T02220172  RH  077%=      5-min Rain = 0
KNOR 151005Z 23005KT 22/17 A3008 RMK A01 T02200172  RH  078%=      5-min Rain = 0
KNOR 151010Z 25006KT 22/17 A3008 RMK A01 T02200172  RH  078%=      5-min Rain = 0
KNOR 151015Z 25006KT 22/17 A3008 RMK A01 T02220172  RH  077%=      5-min Rain = 0
KNOR 151020Z 25006KT 22/17 A3008 RMK A01 T02190172  RH  079%=      5-min Rain = 0
KNOR 151025Z 24005KT 22/17 A3009 RMK A01 T02190172  RH  079%=      5-min Rain = 0
KNOR 151030Z 24004KT 22/17 A3009 RMK A01 T02200173  RH  079%=      5-min Rain = 0
KNOR 151035Z 24004KT 22/17 A3009 RMK A01 T02200173  RH  078%=      5-min Rain = 0
KNOR 151040Z 25004KT 22/17 A3009 RMK A01 T02220173  RH  077%=      5-min Rain = 0
KNOR 151045Z 25004KT 22/17 A3009 RMK A01 T02240173  RH  077%=      5-min Rain = 0
KNOR 151050Z 26004KT 22/17 A3009 RMK A01 T02230173  RH  077%=      5-min Rain = 0
KNOR 151055Z 27003KT 22/17 A3009 RMK A01 T02230173  RH  077%=      5-min Rain = 0
KNOR 151100Z 26003KT 22/17 A3009 RMK A01 T02240173  RH  077%=      5-min Rain = 0
KNOR 151105Z 28003KT 22/17 A3009 RMK A01 T02230173  RH  077%=      5-min Rain = 0
KNOR 151110Z 30004KT 22/17 A301 RMK A01 T02200173  RH  078%=      5-min Rain = 0
KNOR 151115Z 32004KT 22/17 A301 RMK A01 T02200173  RH  079%=      5-min Rain = 0
KNOR 151120Z 33004KT 22/17 A301 RMK A01 T02190174  RH  079%=      5-min Rain = 0
KNOR 151125Z 34003KT 22/17 A301 RMK A01 T02180174  RH  080%=      5-min Rain = 0
KNOR 151130Z 35003KT 22/17 A301 RMK A01 T02210174  RH  079%=      5-min Rain = 0
KNOR 151135Z 01002KT 22/17 A301 RMK A01 T02220174  RH  079%=      5-min Rain = 0
KNOR 151140Z 01003KT 22/17 A3011 RMK A01 T02200174  RH  079%=      5-min Rain = 0
KNOR 151145Z 02003KT 22/18 A3011 RMK A01 T02190175  RH  080%=      5-min Rain = 0
KNOR 151150Z 03002KT 22/18 A3011 RMK A01 T02220176  RH  079%=      5-min Rain = 0
KNOR 151155Z 04001KT 22/18 A301 RMK A01 T02240176  RH  078%=      5-min Rain = 0
KNOR 151200Z 02002KT 23/18 A301 RMK A01 T02260176  RH  077%=      5-min Rain = 0
KNOR 151205Z 02002KT 22/18 A301 RMK A01 T02240176  RH  078%=      5-min Rain = 0
KNOR 151210Z 02002KT 23/18 A3011 RMK A01 T02250176  RH  078%=      5-min Rain = 0
KNOR 151215Z 03003KT 23/18 A3011 RMK A01 T02280177  RH  077%=      5-min Rain = 0
KNOR 151220Z 06003KT 23/18 A3011 RMK A01 T02270177  RH  077%=      5-min Rain = 0
KNOR 151225Z 07003KT 23/18 A3011 RMK A01 T02300178  RH  076%=      5-min Rain = 0
KNOR 151230Z 06003KT 23/18 A3011 RMK A01 T02310178  RH  076%=      5-min Rain = 0
KNOR 151235Z 07004KT 23/18 A3011 RMK A01 T02300179  RH  077%=      5-min Rain = 0
KNOR 151240Z 06004KT 23/18 A3012 RMK A01 T02320179  RH  076%=      5-min Rain = 0
KNOR 151245Z 07003KT 24/18 A3011 RMK A01 T02360180  RH  074%=      5-min Rain = 0
KNOR 151250Z 08003KT 24/18 A3011 RMK A01 T02400180  RH  073%=      5-min Rain = 0
KNOR 151255Z 10003KT 24/18 A3011 RMK A01 T02430180  RH  072%=      5-min Rain = 0
KNOR 151300Z 10003KT 25/18 A3011 RMK A01 T02470181  RH  070%=      5-min Rain = 0
KNOR 151305Z 11002KT 25/18 A3011 RMK A01 T02510182  RH  069%=      5-min Rain = 0
KNOR 151310Z 09003KT 26/18 A3012 RMK A01 T02550183  RH  068%=      5-min Rain = 0
KNOR 151315Z 01006KT 26/18 A3013 RMK A01 T02580184  RH  067%=      5-min Rain = 0
KNOR 151320Z 34012KT 25/18 A3015 RMK A01 T02510182  RH  069%=      5-min Rain = 0
KNOR 151325Z 34010G18KT 24/18 A3015 RMK A01 T02440182  RH  072%=      5-min Rain = 0
KNOR 151330Z 36009G14KT 25/18 A3015 RMK A01 T02500181  RH  069%=      5-min Rain = 0
KNOR 151335Z 34010G17KT 25/18 A3015 RMK A01 T02490181  RH  069%=      5-min Rain = 0
KNOR 151340Z 35009KT 25/18 A3015 RMK A01 T02530178  RH  067%=      5-min Rain = 0
KNOR 151345Z 34009KT 25/18 A3016 RMK A01 T02510177  RH  067%=      5-min Rain = 0
KNOR 151350Z 34009KT 26/17 A3015 RMK A01 T02570173  RH  063%=      5-min Rain = 0
KNOR 151355Z 33011KT 26/17 A3016 RMK A01 T02610171  RH  061%=      5-min Rain = 0
KNOR 151400Z 34010G17KT 26/17 A3015 RMK A01 T02610169  RH  060%=      5-min Rain = 0
KNOR 151405Z 34009KT 27/17 A3015 RMK A01 T02650168  RH  058%=      5-min Rain = 0
KNOR 151410Z 35009KT 27/17 A3015 RMK A01 T02680167  RH  056%=      5-min Rain = 0
KNOR 151415Z 35008KT 27/17 A3014 RMK A01 T02730166  RH  055%=      5-min Rain = 0
KNOR 151420Z 35011G17KT 28/16 A3014 RMK A01 T02750161  RH  052%=      5-min Rain = 0
KNOR 151425Z 34011KT 28/16 A3015 RMK A01 T02770156  RH  050%=      5-min Rain = 0
KNOR 151430Z 33010KT 28/15 A3015 RMK A01 T02820153  RH  048%=      5-min Rain = 0
KNOR 151435Z 34010KT 29/15 A3014 RMK A01 T02860152  RH  046%=      5-min Rain = 0
KNOR 151440Z 35009KT 29/15 A3014 RMK A01 T02880153  RH  046%=      5-min Rain = 0
KNOR 151445Z 34007KT 29/15 A3014 RMK A01 T02920154  RH  045%=      5-min Rain = 0
KNOR 151450Z 34008KT 29/15 A3014 RMK A01 T02920153  RH  045%=      5-min Rain = 0
KNOR 151455Z 33008G13KT 29/15 A3013 RMK A01 T02870150  RH  045%=      5-min Rain = 0
KNOR 151500Z 32009KT 28/14 A3013 RMK A01 T02810144  RH  045%=      5-min Rain = 0
KNOR 151505Z 33006KT 28/14 A3012 RMK A01 T02800144  RH  045%=      5-min Rain = 0
KNOR 151510Z 34003KT 28/14 A3011 RMK A01 T02830143  RH  044%=      5-min Rain = 0
KNOR 151515Z 29002KT 29/14 A301 RMK A01 T02880139  RH  042%=      5-min Rain = 0
KNOR 151520Z 22003KT 29/14 A3009 RMK A01 T02900136  RH  040%=      5-min Rain = 0
KNOR 151525Z 17004KT 30/14 A3007 RMK A01 T02970138  RH  039%=      5-min Rain = 0
KNOR 151530Z 16007KT 31/14 A3006 RMK A01 T03070139  RH  038%=      5-min Rain = 0
KNOR 151535Z 16007KT 31/14 A3005 RMK A01 T03060142  RH  038%=      5-min Rain = 0
KNOR 151540Z 15008KT 31/15 A3005 RMK A01 T03060146  RH  039%=      5-min Rain = 0
KNOR 151545Z 14006KT 31/15 A3005 RMK A01 T03070146  RH  039%=      5-min Rain = 0
KNOR 151550Z 15006KT 31/15 A3006 RMK A01 T03120149  RH  039%=      5-min Rain = 0
KNOR 151555Z 17008KT 32/15 A3005 RMK A01 T03150148  RH  038%=      5-min Rain = 0
KNOR 151600Z 16010KT 32/15 A3005 RMK A01 T03180151  RH  038%=      5-min Rain = 0
KNOR 151605Z 18011KT 32/15 A3005 RMK A01 T03210151  RH  037%=      5-min Rain = 0
KNOR 151610Z 18008KT 32/15 A3006 RMK A01 T03240153  RH  037%=      5-min Rain = 0
KNOR 151615Z 17006KT 33/15 A3006 RMK A01 T03310153  RH  036%=      5-min Rain = 0
KNOR 151620Z 16006KT 33/15 A3006 RMK A01 T03340154  RH  036%=      5-min Rain = 0
KNOR 151625Z 18006G11KT 34/15 A3006 RMK A01 T03350154  RH  035%=      5-min Rain = 0
KNOR 151630Z 20005G11KT 33/15 A3006 RMK A01 T03310154  RH  036%=      5-min Rain = 0
KNOR 151635Z 18006KT 33/15 A3006 RMK A01 T03330154  RH  036%=      5-min Rain = 0
KNOR 151640Z 20007G13KT 34/16 A3006 RMK A01 T03380155  RH  035%=      5-min Rain = 0
KNOR 151645Z 17006KT 34/16 A3006 RMK A01 T03360155  RH  035%=      5-min Rain = 0
KNOR 151650Z 18007G12KT 34/16 A3005 RMK A01 T03390156  RH  035%=      5-min Rain = 0
KNOR 151655Z 17007KT 34/16 A3005 RMK A01 T03420155  RH  034%=      5-min Rain = 0
KNOR 151700Z 18006KT 34/16 A3005 RMK A01 T03420155  RH  034%=      5-min Rain = 0
KNOR 151705Z 18009KT 34/15 A3005 RMK A01 T03410154  RH  034%=      5-min Rain = 0
KNOR 151710Z 17006G13KT 34/16 A3005 RMK A01 T03390155  RH  035%=      5-min Rain = 0
KNOR 151715Z 16008KT 34/16 A3005 RMK A01 T03390155  RH  035%=      5-min Rain = 0
KNOR 151720Z 20006KT 35/16 A3005 RMK A01 T03470156  RH  034%=      5-min Rain = 0
KNOR 151725Z 20009KT 35/15 A3005 RMK A01 T03450152  RH  033%=      5-min Rain = 0
KNOR 151730Z 20007G13KT 35/15 A3004 RMK A01 T03450153  RH  033%=      5-min Rain = 0
KNOR 151735Z 16008KT 35/15 A3004 RMK A01 T03470154  RH  033%=      5-min Rain = 0
KNOR 151740Z 18008G13KT 35/15 A3004 RMK A01 T03480154  RH  033%=      5-min Rain = 0
KNOR 151745Z 19007G12KT 35/15 A3004 RMK A01 T03490152  RH  032%=      5-min Rain = 0
KNOR 151750Z 19008G13KT 35/15 A3004 RMK A01 T03480149  RH  032%=      5-min Rain = 0
KNOR 151755Z 18004G11KT 35/15 A3004 RMK A01 T03470149  RH  032%=      5-min Rain = 0
KNOR 151800Z 14006G11KT 35/16 A3003 RMK A01 T03470158  RH  034%=      5-min Rain = 0
KNOR 151805Z 16007KT 35/16 A3003 RMK A01 T03530157  RH  033%=      5-min Rain = 0
KNOR 151810Z 20009KT 35/16 A3003 RMK A01 T03520157  RH  033%=      5-min Rain = 0
KNOR 151815Z 18008G13KT 36/16 A3003 RMK A01 T03570159  RH  032%=      5-min Rain = 0
KNOR 151820Z 18006G11KT 36/16 A3003 RMK A01 T03550158  RH  032%=      5-min Rain = 0
KNOR 151825Z 17009G15KT 36/16 A3003 RMK A01 T03620158  RH  031%=      5-min Rain = 0
KNOR 151830Z 16007G12KT 36/16 A3002 RMK A01 T03560156  RH  032%=      5-min Rain = 0
KNOR 151835Z 17010G15KT 36/16 A3002 RMK A01 T03630157  RH  031%=      5-min Rain = 0
KNOR 151840Z 16004G9KT 36/16 A3002 RMK A01 T03560157  RH  032%=      5-min Rain = 0
KNOR 151845Z 15007G15KT 36/16 A3002 RMK A01 T03600157  RH  031%=      5-min Rain = 0
KNOR 151850Z 18006G12KT 36/16 A3002 RMK A01 T03570155  RH  031%=      5-min Rain = 0
KNOR 151855Z 14006KT 36/15 A3001 RMK A01 T03600154  RH  031%=      5-min Rain = 0
KNOR 151900Z 21006G11KT 36/15 A3001 RMK A01 T03600150  RH  030%=      5-min Rain = 0
KNOR 151905Z 20007G13KT 37/15 A3001 RMK A01 T03690150  RH  029%=      5-min Rain = 0
KNOR 151910Z 24007G13KT 37/15 A3001 RMK A01 T03690153  RH  029%=      5-min Rain = 0
KNOR 151915Z 21007G12KT 37/16 A3001 RMK A01 T03700155  RH  029%=      5-min Rain = 0
KNOR 151920Z 20007G16KT 37/16 A30 RMK A01 T03700156  RH  029%=      5-min Rain = 0
KNOR 151925Z 23010G15KT 38/15 A30 RMK A01 T03750153  RH  028%=      5-min Rain = 0
KNOR 151930Z 21010G16KT 37/15 A30 RMK A01 T03700147  RH  028%=      5-min Rain = 0
KNOR 151935Z 20006G12KT 38/15 A30 RMK A01 T03770147  RH  027%=      5-min Rain = 0
KNOR 151940Z 22008KT 37/14 A30 RMK A01 T03730142  RH  027%=      5-min Rain = 0
KNOR 151945Z 21003G8KT 36/15 A30 RMK A01 T03640145  RH  029%=      5-min Rain = 0
KNOR 151950Z 21005G12KT 38/15 A2999 RMK A01 T03750149  RH  027%=      5-min Rain = 0
KNOR 151955Z 23008G14KT 38/15 A2999 RMK A01 T03780149  RH  027%=      5-min Rain = 0
KNOR 152000Z 20004G9KT 38/15 A2999 RMK A01 T03760146  RH  027%=      5-min Rain = 0
KNOR 152005Z 18004G13KT 38/15 A2998 RMK A01 T03770146  RH  027%=      5-min Rain = 0
KNOR 152010Z 19004G13KT 38/15 A2998 RMK A01 T03780147  RH  027%=      5-min Rain = 0
KNOR 152015Z 19004G10KT 38/15 A2998 RMK A01 T03790150  RH  027%=      5-min Rain = 0
KNOR 152020Z 20010G15KT 38/15 A2997 RMK A01 T03820147  RH  026%=      5-min Rain = 0
KNOR 152025Z 18006G11KT 38/15 A2997 RMK A01 T03820148  RH  026%=      5-min Rain = 0
KNOR 152030Z 20007G12KT 37/15 A2997 RMK A01 T03730146  RH  027%=      5-min Rain = 0
KNOR 152035Z 19009KT 38/15 A2996 RMK A01 T03750150  RH  028%=      5-min Rain = 0
KNOR 152040Z 20006KT 38/15 A2996 RMK A01 T03760146  RH  027%=      5-min Rain = 0
KNOR 152045Z 24002KT 37/15 A2996 RMK A01 T03660146  RH  028%=      5-min Rain = 0
KNOR 152050Z 20007KT 37/15 A2995 RMK A01 T03720148  RH  028%=      5-min Rain = 0
KNOR 152055Z 22008G14KT 38/15 A2995 RMK A01 T03760150  RH  027%=      5-min Rain = 0
KNOR 152100Z 18008KT 38/15 A2995 RMK A01 T03810147  RH  026%=      5-min Rain = 0
KNOR 152105Z 17003G9KT 37/14 A2995 RMK A01 T03720144  RH  027%=      5-min Rain = 0
KNOR 152110Z 19005G12KT 37/15 A2995 RMK A01 T03720147  RH  027%=      5-min Rain = 0
KNOR 152115Z 20009G14KT 38/15 A2994 RMK A01 T03780148  RH  027%=      5-min Rain = 0
KNOR 152120Z 16005KT 38/15 A2994 RMK A01 T03810145  RH  026%=      5-min Rain = 0
KNOR 152125Z 13005G14KT 37/15 A2993 RMK A01 T03730145  RH  027%=      5-min Rain = 0
KNOR 152130Z 18010G16KT 37/15 A2993 RMK A01 T03690147  RH  028%=      5-min Rain = 0
KNOR 152135Z 16005G12KT 38/15 A2993 RMK A01 T03770148  RH  027%=      5-min Rain = 0
KNOR 152140Z 17012G17KT 39/15 A2993 RMK A01 T03850146  RH  025%=      5-min Rain = 0
KNOR 152145Z 18012KT 39/14 A2993 RMK A01 T03890143  RH  024%=      5-min Rain = 0
KNOR 152150Z 20010G15KT 39/14 A2992 RMK A01 T03860143  RH  025%=      5-min Rain = 0
KNOR 152155Z 17012G18KT 38/14 A2993 RMK A01 T03760142  RH  026%=      5-min Rain = 0
KNOR 152200Z 17008KT 38/14 A2993 RMK A01 T03800143  RH  026%=      5-min Rain = 0
KNOR 152205Z 18006G12KT 38/14 A2992 RMK A01 T03800143  RH  026%=      5-min Rain = 0
KNOR 152210Z 17008G14KT 38/14 A2992 RMK A01 T03830140  RH  025%=      5-min Rain = 0
KNOR 152215Z 17007G12KT 39/14 A2992 RMK A01 T03870140  RH  024%=      5-min Rain = 0
KNOR 152220Z 14007G12KT 39/14 A2992 RMK A01 T03850138  RH  024%=      5-min Rain = 0
KNOR 152225Z 17010G17KT 39/14 A2991 RMK A01 T03860138  RH  024%=      5-min Rain = 0
KNOR 152230Z 19010G15KT 39/14 A2991 RMK A01 T03880138  RH  024%=      5-min Rain = 0
KNOR 152235Z 18010G16KT 39/14 A2991 RMK A01 T03870139  RH  024%=      5-min Rain = 0
KNOR 152240Z 19009G14KT 39/14 A2991 RMK A01 T03910137  RH  023%=      5-min Rain = 0
KNOR 152245Z 18011KT 39/14 A2991 RMK A01 T03880138  RH  024%=      5-min Rain = 0
KNOR 152250Z 17012KT 39/14 A2991 RMK A01 T03870135  RH  023%=      5-min Rain = 0
KNOR 152255Z 17011KT 38/13 A299 RMK A01 T03770133  RH  024%=      5-min Rain = 0
KNOR 152300Z 18012G18KT 39/13 A299 RMK A01 T03870134  RH  023%=      5-min Rain = 0
KNOR 152305Z 19010G16KT 39/14 A299 RMK A01 T03860136  RH  024%=      5-min Rain = 0
KNOR 152310Z 18010KT 39/14 A299 RMK A01 T03850135  RH  024%=      5-min Rain = 0
KNOR 152315Z 17011KT 38/14 A299 RMK A01 T03840136  RH  024%=      5-min Rain = 0
KNOR 152320Z 17011G16KT 39/14 A299 RMK A01 T03850136  RH  024%=      5-min Rain = 0
KNOR 152325Z 17010G18KT 38/14 A299 RMK A01 T03830135  RH  024%=      5-min Rain = 0
KNOR 152330Z 17015KT 38/13 A299 RMK A01 T03760129  RH  024%=      5-min Rain = 0
KNOR 152335Z 16012G17KT 38/13 A299 RMK A01 T03770132  RH  024%=      5-min Rain = 0
KNOR 152340Z 16014KT 38/13 A299 RMK A01 T03790133  RH  024%=      5-min Rain = 0
KNOR 152345Z 15012G19KT 38/13 A299 RMK A01 T03790134  RH  024%=      5-min Rain = 0
KNOR 152350Z 16011G16KT 38/13 A299 RMK A01 T03780134  RH  024%=      5-min Rain = 0
KNOR 152355Z 16014G20KT 37/13 A299 RMK A01 T03730133  RH  025%=      5-min Rain = 0
KNOR 160000Z 16013KT 37/13 A299 RMK A01 T03730133  RH  025%=      5-min Rain = 0
KNOR 160005Z 17011G16KT 36/13 A299 RMK A01 T03640133  RH  026%=      5-min Rain = 0
KNOR 160010Z 17011KT 37/13 A299 RMK A01 T03650133  RH  026%=      5-min Rain = 0
KNOR 160015Z 15012G17KT 36/14 A299 RMK A01 T03640138  RH  027%=      5-min Rain = 0
KNOR 160020Z 15012G17KT 36/14 A299 RMK A01 T03580136  RH  028%=      5-min Rain = 0
KNOR 160025Z 15012KT 36/14 A2989 RMK A01 T03570137  RH  028%=      5-min Rain = 0
KNOR 160030Z 15012KT 36/14 A2989 RMK A01 T03560136  RH  028%=      5-min Rain = 0
KNOR 160035Z 16012G17KT 35/14 A2989 RMK A01 T03540137  RH  028%=      5-min Rain = 0
KNOR 160040Z 16010KT 35/14 A299 RMK A01 T03520138  RH  029%=      5-min Rain = 0
KNOR 160045Z 15009KT 35/14 A299 RMK A01 T03510138  RH  029%=      5-min Rain = 0
KNOR 160050Z 15008KT 35/14 A299 RMK A01 T03490138  RH  029%=      5-min Rain = 0
KNOR 160055Z 14006KT 35/14 A2991 RMK A01 T03480138  RH  030%=      5-min Rain = 0
KNOR 160100Z 14006KT 35/14 A2991 RMK A01 T03470137  RH  030%=      5-min Rain = 0
KNOR 160105Z 13005KT 35/14 A2991 RMK A01 T03470138  RH  030%=      5-min Rain = 0
KNOR 160110Z 12005KT 34/14 A2991 RMK A01 T03430144  RH  032%=      5-min Rain = 0
KNOR 160115Z 13005KT 34/15 A2992 RMK A01 T03380147  RH  033%=      5-min Rain = 0
KNOR 160120Z 15005KT 34/15 A2992 RMK A01 T03360147  RH  034%=      5-min Rain = 0
KNOR 160125Z 18006KT 33/15 A2992 RMK A01 T03310151  RH  036%=      5-min Rain = 0
KNOR 160130Z 19009KT 32/16 A2993 RMK A01 T03190160  RH  040%=      5-min Rain = 0
KNOR 160135Z 19009KT 31/17 A2993 RMK A01 T03110166  RH  044%=      5-min Rain = 0
KNOR 160140Z 23010G20KT 30/17 A2993 RMK A01 T03010173  RH  049%=      5-min Rain = 0
KNOR 160145Z 25020G26KT 26/16 A2994 RMK A01 T02630162  RH  057%=      5-min Rain = 0
KNOR 160150Z 24017G22KT 25/16 A2994 RMK A01 T02500162  RH  061%=      5-min Rain = 0
KNOR 160155Z 21015G20KT 25/17 A2993 RMK A01 T02450173  RH  067%=      5-min Rain = 0
KNOR 160200Z 19014G19KT 25/17 A2991 RMK A01 T02520174  RH  065%=      5-min Rain = 0
KNOR 160205Z 20013G18KT 26/17 A299 RMK A01 T02580167  RH  060%=      5-min Rain = 0
KNOR 160210Z 23012G18KT 27/15 A299 RMK A01 T02690154  RH  052%=      5-min Rain = 0
KNOR 160215Z 28017G25KT 25/16 A2992 RMK A01 T02530161  RH  059%=      5-min Rain = 0
KNOR 160220Z 26017G24KT 25/16 A2995 RMK A01 T02460158  RH  061%=      5-min Rain = 0
KNOR 160225Z 24015G23KT 24/16 A2995 RMK A01 T02370156  RH  063%=      5-min Rain = 0
KNOR 160230Z 22015G22KT 25/15 A2995 RMK A01 T02480148  RH  056%=      5-min Rain = 0
KNOR 160235Z 23017G22KT 24/15 A2997 RMK A01 T02430150  RH  059%=      5-min Rain = 0
KNOR 160240Z 21015G21KT 25/14 A2996 RMK A01 T02490138  RH  052%=      5-min Rain = 0
KNOR 160245Z 20017G24KT 24/13 A2995 RMK A01 T02430134  RH  053%=      5-min Rain = 0
KNOR 160250Z 22016G22KT 24/14 A2996 RMK A01 T02430136  RH  054%=      5-min Rain = 0
KNOR 160255Z 23013KT 23/14 A2997 RMK A01 T02340142  RH  059%=      5-min Rain = 0
KNOR 160300Z 23009G14KT 23/15 A2997 RMK A01 T02310147  RH  062%=      5-min Rain = 0
KNOR 160305Z 21014G21KT 24/14 A2996 RMK A01 T02360136  RH  056%=      5-min Rain = 0
KNOR 160310Z 20020G26KT 25/13 A2995 RMK A01 T02460125  RH  049%=      5-min Rain = 0
KNOR 160315Z 19020G27KT 25/11 A2994 RMK A01 T02520112  RH  043%=      5-min Rain = 0
KNOR 160320Z 20019G25KT 27/09 A2994 RMK A01 T02700094  RH  034%=      5-min Rain = 0
KNOR 160325Z 21014G19KT 28/09 A2995 RMK A01 T02750093  RH  033%=      5-min Rain = 0
KNOR 160330Z 21014G19KT 27/10 A2996 RMK A01 T02700097  RH  035%=      5-min Rain = 0
KNOR 160335Z 20015G21KT 27/10 A2996 RMK A01 T02660099  RH  036%=      5-min Rain = 0
KNOR 160340Z 19016G21KT 27/10 A2996 RMK A01 T02670100  RH  036%=      5-min Rain = 0
KNOR 160345Z 20017G22KT 27/10 A2995 RMK A01 T02710096  RH  034%=      5-min Rain = 0
KNOR 160350Z 20014G19KT 27/10 A2995 RMK A01 T02720096  RH  034%=      5-min Rain = 0
KNOR 160355Z 19011G18KT 27/10 A2995 RMK A01 T02650102  RH  037%=      5-min Rain = 0
KNOR 160400Z 20013G19KT 27/10 A2996 RMK A01 T02670100  RH  036%=      5-min Rain = 0
KNOR 160405Z 20014G19KT 27/10 A2996 RMK A01 T02710098  RH  035%=      5-min Rain = 0
KNOR 160410Z 20013G18KT 28/10 A2995 RMK A01 T02750097  RH  034%=      5-min Rain = 0
KNOR 160415Z 20011G16KT 28/10 A2996 RMK A01 T02760097  RH  033%=      5-min Rain = 0
KNOR 160420Z 19010KT 27/10 A2996 RMK A01 T02740099  RH  034%=      5-min Rain = 0
KNOR 160425Z 20011G16KT 28/10 A2996 RMK A01 T02750098  RH  034%=      5-min Rain = 0
KNOR 160430Z 19012G17KT 28/10 A2996 RMK A01 T02790096  RH  033%=      5-min Rain = 0
KNOR 160435Z 19013KT 28/09 A2995 RMK A01 T02820094  RH  032%=      5-min Rain = 0
KNOR 160440Z 19013KT 28/10 A2995 RMK A01 T02820095  RH  032%=      5-min Rain = 0
KNOR 160445Z 18010G15KT 28/10 A2995 RMK A01 T02790097  RH  033%=      5-min Rain = 0
KNOR 160450Z 19007G13KT 28/10 A2995 RMK A01 T02800095  RH  033%=      5-min Rain = 0
KNOR 160455Z 17004KT 28/09 A2995 RMK A01 T02810094  RH  032%=      5-min Rain = 0

Page generated in 0.0093 seconds.